San Francisco, California
Traffic Map
Current Weather Conditions
San Francisco, California
Scattered Clouds
Scattered Clouds
65°
Feels Like: 65°
Wind Chill: 65° Ceiling: Unl
Heat Index: 65° Visibility: 10mi
Dew Point: 48° Wind: 14mph
Humidity: 54% Direction: 300° (WNW)
Pressure: 29.86in Gusts: 0mph
Raw Report DataKSFO 290356Z 30012KT 10SM SCT200 18/09 A2986 RMK AO2 SLP113 T01830089 $
Traffic Incident Summary
Active as of:
Severity:
Category:
InformationThere was an issue retrieving the traffic information for this location. Please try a different location or try again shortly.
Advertisements
Track Severe Weather on mobile